PWSweather.com
Personal Weather Stations
Station Observations
CARNOUSTIE
Pambride, CarnoustieGB DD7 6DY

PambrideCarnoustieGB DD7 6DY

Lat: 56.50889, Lon: -2.7051

Elevation: 105

Station Type: Oregon Scientific WMR200

Latest ConditionsUpdated 10:15:01 PM GMT Sunday, Jan 19, 2020
Currently Today's Max Today's Min Today's Average
Temperature 40.1°F4.5°C 42.3°F5.7°C 31.1°F-0.5°C 37.5°F3.1°C
Dew Point 26.1°F-3.3°C 31.9°F-0.1°C 18.3°F-7.6°C 24.3°F-4.3°C
Winds 4.6 mph WSW7.4 kmh WSW 9.2 mph -14.8 kmh - - 4.1 mph 6.6 kmh
Wind Gusts 8.1 mph13.0 kmh 12.7 mph20.4 kmh - -
Humidity 57% 69% 52% 59%
Pressure 30.56 in1034.9 mb 30.62 in1036.9 mb 30.45 in1031.2 mb -
Hour Temp Dew Point Humidity Winds Wind Gusts Pressure Precip Precip Rate Daily Precip Total
10:15 PM 40.1°F4.5°C 26.1°F-3.3°C 57% 4.6 mph WSW7.4 kmh WSW 8.1 mph13.0 kmh 30.56 in1034.9 mb - 0.00 in0.0 mm 0.00 in0.0 mm
10:10 PM 40.2°F4.6°C 26.2°F-3.2°C 57% 4.6 mph WSW7.4 kmh WSW 5.8 mph9.3 kmh 30.56 in1034.9 mb - 0.00 in0.0 mm 0.00 in0.0 mm
10:00 PM 40.1°F4.5°C 26.1°F-3.3°C 57% 4.6 mph W7.4 kmh W 6.9 mph11.1 kmh 30.56 in1034.9 mb - 0.00 in0.0 mm 0.00 in0.0 mm
09:55 PM 40.3°F4.6°C 26.2°F-3.2°C 57% 6.9 mph SW11.1 kmh SW 9.2 mph14.8 kmh 30.56 in1034.9 mb - 0.00 in0.0 mm 0.00 in0.0 mm
09:50 PM 40.3°F4.6°C 26.2°F-3.2°C 57% 6.9 mph W11.1 kmh W 8.1 mph13.0 kmh 30.56 in1034.9 mb - 0.00 in0.0 mm 0.00 in0.0 mm
09:45 PM 40.3°F4.6°C 25.8°F-3.4°C 56% 4.6 mph WSW7.4 kmh WSW 6.9 mph11.1 kmh 30.56 in1034.9 mb - 0.00 in0.0 mm 0.00 in0.0 mm
09:40 PM 40.3°F4.6°C 25.8°F-3.4°C 56% 6.9 mph WSW11.1 kmh WSW 8.1 mph13.0 kmh 30.56 in1034.9 mb - 0.00 in0.0 mm 0.00 in0.0 mm
09:35 PM 40.3°F4.6°C 25.8°F-3.4°C 56% 4.6 mph SW7.4 kmh SW 6.9 mph11.1 kmh 30.56 in1034.9 mb - 0.00 in0.0 mm 0.00 in0.0 mm
09:30 PM 40.5°F4.7°C 26.0°F-3.3°C 56% 6.9 mph SSW11.1 kmh SSW 10.4 mph16.7 kmh 30.56 in1034.9 mb - 0.00 in0.0 mm 0.00 in0.0 mm
09:25 PM 40.5°F4.7°C 26.0°F-3.3°C 56% 6.9 mph WSW11.1 kmh WSW 9.2 mph14.8 kmh 30.56 in1034.9 mb - 0.00 in0.0 mm 0.00 in0.0 mm
09:20 PM 40.5°F4.7°C 26.0°F-3.3°C 56% 6.9 mph WSW11.1 kmh WSW 9.2 mph14.8 kmh 30.56 in1034.9 mb - 0.00 in0.0 mm 0.00 in0.0 mm
09:15 PM 40.5°F4.7°C 26.0°F-3.3°C 56% 6.9 mph WSW11.1 kmh WSW 11.5 mph18.5 kmh 30.56 in1034.9 mb - 0.00 in0.0 mm 0.00 in0.0 mm
09:10 PM 40.5°F4.7°C 25.5°F-3.6°C 55% 6.9 mph NW11.1 kmh NW 8.1 mph13.0 kmh 30.56 in1034.9 mb - 0.00 in0.0 mm 0.00 in0.0 mm
09:00 PM 40.6°F4.8°C 25.7°F-3.5°C 55% 8.1 mph WSW13.0 kmh WSW 11.5 mph18.5 kmh 30.58 in1035.6 mb - 0.00 in0.0 mm 0.00 in0.0 mm
08:55 PM 40.6°F4.8°C 25.7°F-3.5°C 55% 9.2 mph WSW14.8 kmh WSW 11.5 mph18.5 kmh 30.59 in1035.9 mb - 0.00 in0.0 mm 0.00 in0.0 mm
08:50 PM 40.6°F4.8°C 25.3°F-3.7°C 54% 6.9 mph W11.1 kmh W 9.2 mph14.8 kmh 30.59 in1035.9 mb - 0.00 in0.0 mm 0.00 in0.0 mm
08:45 PM 40.6°F4.8°C 25.3°F-3.7°C 54% 6.9 mph WSW11.1 kmh WSW 11.5 mph18.5 kmh 30.59 in1035.9 mb - 0.00 in0.0 mm 0.00 in0.0 mm
08:40 PM 40.8°F4.9°C 25.4°F-3.7°C 54% 6.9 mph SW11.1 kmh SW 12.7 mph20.4 kmh 30.59 in1035.9 mb - 0.00 in0.0 mm 0.00 in0.0 mm
08:35 PM 40.8°F4.9°C 25.4°F-3.7°C 54% 5.8 mph WSW9.3 kmh WSW 10.4 mph16.7 kmh 30.59 in1035.9 mb - 0.00 in0.0 mm 0.00 in0.0 mm
08:30 PM 40.6°F4.8°C 25.7°F-3.5°C 55% 5.8 mph SSW9.3 kmh SSW 10.4 mph16.7 kmh 30.59 in1035.9 mb - 0.00 in0.0 mm 0.00 in0.0 mm
08:25 PM 40.6°F4.8°C 25.7°F-3.5°C 55% 6.9 mph SW11.1 kmh SW 8.1 mph13.0 kmh 30.59 in1035.9 mb - 0.00 in0.0 mm 0.00 in0.0 mm
08:20 PM 40.5°F4.7°C 25.5°F-3.6°C 55% 4.6 mph WSW7.4 kmh WSW 5.8 mph9.3 kmh 30.59 in1035.9 mb - 0.00 in0.0 mm 0.00 in0.0 mm
08:15 PM 40.5°F4.7°C 25.5°F-3.6°C 55% 8.1 mph SW13.0 kmh SW 11.5 mph18.5 kmh 30.59 in1035.9 mb - 0.00 in0.0 mm 0.00 in0.0 mm
08:10 PM 40.5°F4.7°C 25.5°F-3.6°C 55% 6.9 mph SW11.1 kmh SW 5.8 mph9.3 kmh 30.59 in1035.9 mb - 0.00 in0.0 mm 0.00 in0.0 mm
08:00 PM 40.4°F4.7°C 25.0°F-3.9°C 54% 4.6 mph WSW7.4 kmh WSW 6.9 mph11.1 kmh 30.59 in1035.9 mb - 0.00 in0.0 mm 0.00 in0.0 mm
07:55 PM 40.5°F4.7°C 25.1°F-3.8°C 54% 4.6 mph SW7.4 kmh SW 6.9 mph11.1 kmh 30.59 in1035.9 mb - 0.00 in0.0 mm 0.00 in0.0 mm
07:50 PM 40.5°F4.7°C 25.1°F-3.8°C 54% 3.5 mph W5.6 kmh W 6.9 mph11.1 kmh 30.59 in1035.9 mb - 0.00 in0.0 mm 0.00 in0.0 mm
07:45 PM 40.5°F4.7°C 25.2°F-3.8°C 54% 4.6 mph WSW7.4 kmh WSW 5.8 mph9.3 kmh 30.59 in1035.9 mb - 0.00 in0.0 mm 0.00 in0.0 mm
07:40 PM 40.6°F4.8°C 25.3°F-3.7°C 54% 5.8 mph W9.3 kmh W 9.2 mph14.8 kmh 30.59 in1035.9 mb - 0.00 in0.0 mm 0.00 in0.0 mm
07:35 PM 40.5°F4.7°C 25.1°F-3.8°C 54% 5.8 mph WNW9.3 kmh WNW 9.2 mph14.8 kmh 30.59 in1035.9 mb - 0.00 in0.0 mm 0.00 in0.0 mm
07:30 PM 40.6°F4.8°C 25.3°F-3.7°C 54% 6.9 mph SW11.1 kmh SW 10.4 mph16.7 kmh 30.59 in1035.9 mb - 0.00 in0.0 mm 0.00 in0.0 mm
07:25 PM 40.5°F4.7°C 25.1°F-3.8°C 54% 5.8 mph WSW9.3 kmh WSW 9.2 mph14.8 kmh 30.59 in1035.9 mb - 0.00 in0.0 mm 0.00 in0.0 mm
07:20 PM 40.5°F4.7°C 25.1°F-3.8°C 54% 5.8 mph WSW9.3 kmh WSW 8.1 mph13.0 kmh 30.59 in1035.9 mb - 0.00 in0.0 mm 0.00 in0.0 mm
07:15 PM 40.6°F4.8°C 24.8°F-4.0°C 53% 3.5 mph WSW5.6 kmh WSW 5.8 mph9.3 kmh 30.59 in1035.9 mb - 0.00 in0.0 mm 0.00 in0.0 mm
07:10 PM 40.6°F4.8°C 24.8°F-4.0°C 53% 4.6 mph S7.4 kmh S 4.6 mph7.4 kmh 30.59 in1035.9 mb - 0.00 in0.0 mm 0.00 in0.0 mm
07:00 PM 40.8°F4.9°C 25.0°F-3.9°C 53% 3.5 mph WSW5.6 kmh WSW 4.6 mph7.4 kmh 30.59 in1035.9 mb - 0.00 in0.0 mm 0.00 in0.0 mm
06:55 PM 40.8°F4.9°C 25.0°F-3.9°C 53% 4.6 mph SSW7.4 kmh SSW 5.8 mph9.3 kmh 30.59 in1035.9 mb - 0.00 in0.0 mm 0.00 in0.0 mm
06:50 PM 40.8°F4.9°C 25.0°F-3.9°C 53% 5.8 mph SW9.3 kmh SW 8.1 mph13.0 kmh 30.59 in1035.9 mb - 0.00 in0.0 mm 0.00 in0.0 mm
06:45 PM 40.8°F4.9°C 25.0°F-3.9°C 53% 5.8 mph WSW9.3 kmh WSW 8.1 mph13.0 kmh 30.59 in1035.9 mb - 0.00 in0.0 mm 0.00 in0.0 mm
06:40 PM 40.8°F4.9°C 25.4°F-3.7°C 54% 6.9 mph W11.1 kmh W 10.4 mph16.7 kmh 30.59 in1035.9 mb - 0.00 in0.0 mm 0.00 in0.0 mm
06:35 PM 40.6°F4.8°C 25.3°F-3.7°C 54% 4.6 mph SSW7.4 kmh SSW 8.1 mph13.0 kmh 30.59 in1035.9 mb - 0.00 in0.0 mm 0.00 in0.0 mm
06:30 PM 40.6°F4.8°C 25.3°F-3.7°C 54% 4.6 mph WSW7.4 kmh WSW 9.2 mph14.8 kmh 30.59 in1035.9 mb - 0.00 in0.0 mm 0.00 in0.0 mm
06:25 PM 40.6°F4.8°C 25.3°F-3.7°C 54% 5.8 mph WSW9.3 kmh WSW 8.1 mph13.0 kmh 30.59 in1035.9 mb - 0.00 in0.0 mm 0.00 in0.0 mm
06:20 PM 40.5°F4.7°C 25.5°F-3.6°C 55% 6.9 mph W11.1 kmh W 8.1 mph13.0 kmh 30.59 in1035.9 mb - 0.00 in0.0 mm 0.00 in0.0 mm
06:15 PM 40.5°F4.7°C 25.5°F-3.6°C 55% 6.9 mph WSW11.1 kmh WSW 9.2 mph14.8 kmh 30.59 in1035.9 mb - 0.00 in0.0 mm 0.00 in0.0 mm
06:10 PM 40.5°F4.7°C 25.5°F-3.6°C 55% 5.8 mph WSW9.3 kmh WSW 11.5 mph18.5 kmh 30.59 in1035.9 mb - 0.00 in0.0 mm 0.00 in0.0 mm
06:00 PM 40.5°F4.7°C 25.5°F-3.6°C 55% 5.8 mph WSW9.3 kmh WSW 9.2 mph14.8 kmh 30.59 in1035.9 mb - 0.00 in0.0 mm 0.00 in0.0 mm
05:55 PM 40.5°F4.7°C 25.5°F-3.6°C 55% 3.5 mph WSW5.6 kmh WSW 6.9 mph11.1 kmh 30.59 in1035.9 mb - 0.00 in0.0 mm 0.00 in0.0 mm
05:50 PM 40.5°F4.7°C 25.5°F-3.6°C 55% 4.6 mph SW7.4 kmh SW 4.6 mph7.4 kmh 30.59 in1035.9 mb - 0.00 in0.0 mm 0.00 in0.0 mm
05:45 PM 40.5°F4.7°C 25.5°F-3.6°C 55% 5.8 mph WSW9.3 kmh WSW 8.1 mph13.0 kmh 30.59 in1035.9 mb - 0.00 in0.0 mm 0.00 in0.0 mm
05:40 PM 40.5°F4.7°C 25.5°F-3.6°C 55% 4.6 mph SW7.4 kmh SW 8.1 mph13.0 kmh 30.59 in1035.9 mb - 0.00 in0.0 mm 0.00 in0.0 mm
05:35 PM 40.6°F4.8°C 25.7°F-3.5°C 55% 5.8 mph NW9.3 kmh NW 8.1 mph13.0 kmh 30.59 in1035.9 mb - 0.00 in0.0 mm 0.00 in0.0 mm
05:30 PM 40.5°F4.7°C 25.6°F-3.6°C 55% 5.8 mph WSW9.3 kmh WSW 6.9 mph11.1 kmh 30.59 in1035.9 mb - 0.00 in0.0 mm 0.00 in0.0 mm
05:25 PM 40.6°F4.8°C 25.3°F-3.7°C 54% 5.8 mph SW9.3 kmh SW 6.9 mph11.1 kmh 30.59 in1035.9 mb - 0.00 in0.0 mm 0.00 in0.0 mm
05:20 PM 40.6°F4.8°C 25.3°F-3.7°C 54% 4.6 mph WSW7.4 kmh WSW 6.9 mph11.1 kmh 30.59 in1035.9 mb - 0.00 in0.0 mm 0.00 in0.0 mm
05:15 PM 40.8°F4.9°C 25.4°F-3.7°C 54% 5.8 mph SW9.3 kmh SW 8.1 mph13.0 kmh 30.59 in1035.9 mb - 0.00 in0.0 mm 0.00 in0.0 mm
05:10 PM 40.6°F4.8°C 25.3°F-3.7°C 54% 4.6 mph SW7.4 kmh SW 6.9 mph11.1 kmh 30.59 in1035.9 mb - 0.00 in0.0 mm 0.00 in0.0 mm
05:00 PM 40.5°F4.7°C 25.1°F-3.8°C 54% 4.6 mph SW7.4 kmh SW 8.1 mph13.0 kmh 30.61 in1036.6 mb - 0.00 in0.0 mm 0.00 in0.0 mm
04:55 PM 40.6°F4.8°C 25.3°F-3.7°C 54% 3.5 mph SW5.6 kmh SW 3.5 mph5.6 kmh 30.62 in1036.9 mb - 0.00 in0.0 mm 0.00 in0.0 mm
04:50 PM 40.8°F4.9°C 25.4°F-3.7°C 54% 4.6 mph SW7.4 kmh SW 5.8 mph9.3 kmh 30.62 in1036.9 mb - 0.00 in0.0 mm 0.00 in0.0 mm
04:45 PM 41.0°F5.0°C 25.2°F-3.8°C 53% 5.8 mph SW9.3 kmh SW 8.1 mph13.0 kmh 30.62 in1036.9 mb - 0.00 in0.0 mm 0.00 in0.0 mm
04:40 PM 41.0°F5.0°C 25.2°F-3.8°C 53% 4.6 mph WSW7.4 kmh WSW 8.1 mph13.0 kmh 30.62 in1036.9 mb - 0.00 in0.0 mm 0.00 in0.0 mm
04:35 PM 41.0°F5.0°C 25.2°F-3.8°C 53% 4.6 mph WSW7.4 kmh WSW 8.1 mph13.0 kmh 30.62 in1036.9 mb - 0.00 in0.0 mm 0.00 in0.0 mm
04:30 PM 41.0°F5.0°C 25.2°F-3.8°C 53% 4.6 mph WSW7.4 kmh WSW 6.9 mph11.1 kmh 30.62 in1036.9 mb - 0.00 in0.0 mm 0.00 in0.0 mm
04:25 PM 41.2°F5.1°C 25.3°F-3.7°C 53% 4.6 mph SW7.4 kmh SW 5.8 mph9.3 kmh 30.62 in1036.9 mb - 0.00 in0.0 mm 0.00 in0.0 mm
04:20 PM 41.2°F5.1°C 25.8°F-3.4°C 54% 4.6 mph W7.4 kmh W 5.8 mph9.3 kmh 30.62 in1036.9 mb - 0.00 in0.0 mm 0.00 in0.0 mm
04:15 PM 41.2°F5.1°C 25.8°F-3.4°C 54% 3.5 mph SSW5.6 kmh SSW 5.8 mph9.3 kmh 30.61 in1036.6 mb - 0.00 in0.0 mm 0.00 in0.0 mm
04:10 PM 41.4°F5.2°C 25.9°F-3.4°C 54% 4.6 mph W7.4 kmh W 4.6 mph7.4 kmh 30.59 in1035.9 mb - 0.00 in0.0 mm 0.00 in0.0 mm
04:00 PM 41.2°F5.1°C 26.7°F-2.9°C 56% 3.5 mph SSW5.6 kmh SSW 8.1 mph13.0 kmh 30.59 in1035.9 mb - 0.00 in0.0 mm 0.00 in0.0 mm
03:55 PM 41.0°F5.0°C 26.9°F-2.8°C 57% 4.6 mph WSW7.4 kmh WSW 6.9 mph11.1 kmh 30.59 in1035.9 mb - 0.00 in0.0 mm 0.00 in0.0 mm
03:50 PM 41.2°F5.1°C 27.1°F-2.7°C 57% 2.3 mph SW3.7 kmh SW 2.3 mph3.7 kmh 30.59 in1035.9 mb - 0.00 in0.0 mm 0.00 in0.0 mm
03:45 PM 41.2°F5.1°C 27.5°F-2.5°C 58% 3.5 mph WSW5.6 kmh WSW 8.1 mph13.0 kmh 30.59 in1035.9 mb - 0.00 in0.0 mm 0.00 in0.0 mm
03:40 PM 41.2°F5.1°C 27.5°F-2.5°C 58% 4.6 mph WSW7.4 kmh WSW 6.9 mph11.1 kmh 30.59 in1035.9 mb - 0.00 in0.0 mm 0.00 in0.0 mm
03:35 PM 41.2°F5.1°C 27.5°F-2.5°C 58% 4.6 mph W7.4 kmh W 5.8 mph9.3 kmh 30.59 in1035.9 mb - 0.00 in0.0 mm 0.00 in0.0 mm
03:30 PM 41.2°F5.1°C 27.9°F-2.3°C 59% 2.3 mph SW3.7 kmh SW 4.6 mph7.4 kmh 30.59 in1035.9 mb - 0.00 in0.0 mm 0.00 in0.0 mm
03:25 PM 41.2°F5.1°C 27.9°F-2.3°C 59% 3.5 mph SW5.6 kmh SW 8.1 mph13.0 kmh 30.59 in1035.9 mb - 0.00 in0.0 mm 0.00 in0.0 mm
03:20 PM 41.4°F5.2°C 28.1°F-2.2°C 59% 3.5 mph WSW5.6 kmh WSW 6.9 mph11.1 kmh 30.59 in1035.9 mb - 0.00 in0.0 mm 0.00 in0.0 mm
03:15 PM 41.5°F5.3°C 28.3°F-2.1°C 59% 4.6 mph W7.4 kmh W 6.9 mph11.1 kmh 30.59 in1035.9 mb - 0.00 in0.0 mm 0.00 in0.0 mm
03:10 PM 41.5°F5.3°C 28.3°F-2.1°C 59% 5.8 mph W9.3 kmh W 5.8 mph9.3 kmh 30.59 in1035.9 mb - 0.00 in0.0 mm 0.00 in0.0 mm
03:00 PM 41.5°F5.3°C 28.7°F-1.8°C 60% 5.8 mph WNW9.3 kmh WNW 8.1 mph13.0 kmh 30.59 in1035.9 mb - 0.00 in0.0 mm 0.00 in0.0 mm
02:55 PM 41.5°F5.3°C 28.7°F-1.8°C 60% 5.8 mph WSW9.3 kmh WSW 6.9 mph11.1 kmh 30.59 in1035.9 mb - 0.00 in0.0 mm 0.00 in0.0 mm
02:50 PM 41.5°F5.3°C 29.1°F-1.6°C 61% 5.8 mph WSW9.3 kmh WSW 8.1 mph13.0 kmh 30.59 in1035.9 mb - 0.00 in0.0 mm 0.00 in0.0 mm
02:45 PM 41.5°F5.3°C 29.1°F-1.6°C 61% 6.9 mph SW11.1 kmh SW 10.4 mph16.7 kmh 30.58 in1035.6 mb - 0.00 in0.0 mm 0.00 in0.0 mm
02:40 PM 41.4°F5.2°C 28.9°F-1.7°C 61% 8.1 mph SW13.0 kmh SW 9.2 mph14.8 kmh 30.56 in1034.9 mb - 0.00 in0.0 mm 0.00 in0.0 mm
02:35 PM 41.4°F5.2°C 29.3°F-1.5°C 62% 6.9 mph WNW11.1 kmh WNW 9.2 mph14.8 kmh 30.56 in1034.9 mb - 0.00 in0.0 mm 0.00 in0.0 mm
02:30 PM 41.4°F5.2°C 28.9°F-1.7°C 61% 5.8 mph WSW9.3 kmh WSW 8.1 mph13.0 kmh 30.58 in1035.6 mb - 0.00 in0.0 mm 0.00 in0.0 mm
02:25 PM 41.4°F5.2°C 28.9°F-1.7°C 61% 8.1 mph SW13.0 kmh SW 12.7 mph20.4 kmh 30.59 in1035.9 mb - 0.00 in0.0 mm 0.00 in0.0 mm
02:20 PM 41.5°F5.3°C 29.1°F-1.6°C 61% 6.9 mph WSW11.1 kmh WSW 8.1 mph13.0 kmh 30.59 in1035.9 mb - 0.00 in0.0 mm 0.00 in0.0 mm
02:15 PM 41.5°F5.3°C 28.7°F-1.8°C 60% 6.9 mph WSW11.1 kmh WSW 10.4 mph16.7 kmh 30.58 in1035.6 mb - 0.00 in0.0 mm 0.00 in0.0 mm
02:10 PM 41.7°F5.4°C 28.8°F-1.8°C 60% 6.9 mph NW11.1 kmh NW 11.5 mph18.5 kmh 30.56 in1034.9 mb - 0.00 in0.0 mm 0.00 in0.0 mm
02:00 PM 41.9°F5.5°C 29.0°F-1.7°C 60% 5.8 mph WSW9.3 kmh WSW 8.1 mph13.0 kmh 30.60 in1036.2 mb - 0.00 in0.0 mm 0.00 in0.0 mm
01:55 PM 41.9°F5.5°C 29.0°F-1.7°C 60% 5.8 mph WSW9.3 kmh WSW 5.8 mph9.3 kmh 30.62 in1036.9 mb - 0.00 in0.0 mm 0.00 in0.0 mm
01:50 PM 41.9°F5.5°C 29.0°F-1.7°C 60% 5.8 mph SSW9.3 kmh SSW 8.1 mph13.0 kmh 30.62 in1036.9 mb - 0.00 in0.0 mm 0.00 in0.0 mm
01:45 PM 41.9°F5.5°C 29.0°F-1.7°C 60% 6.9 mph WSW11.1 kmh WSW 9.2 mph14.8 kmh 30.62 in1036.9 mb - 0.00 in0.0 mm 0.00 in0.0 mm
01:40 PM 41.7°F5.4°C 29.3°F-1.5°C 61% 6.9 mph WSW11.1 kmh WSW 11.5 mph18.5 kmh 30.62 in1036.9 mb - 0.00 in0.0 mm 0.00 in0.0 mm
01:35 PM 41.6°F5.3°C 29.2°F-1.6°C 61% 6.9 mph WSW11.1 kmh WSW 9.2 mph14.8 kmh 30.62 in1036.9 mb - 0.00 in0.0 mm 0.00 in0.0 mm
01:30 PM 41.5°F5.3°C 29.5°F-1.4°C 62% 5.8 mph WSW9.3 kmh WSW 6.9 mph11.1 kmh 30.62 in1036.9 mb - 0.00 in0.0 mm 0.00 in0.0 mm
01:25 PM 41.4°F5.2°C 29.3°F-1.5°C 62% 5.8 mph W9.3 kmh W 8.1 mph13.0 kmh 30.62 in1036.9 mb - 0.00 in0.0 mm 0.00 in0.0 mm
01:20 PM 41.3°F5.2°C 29.2°F-1.6°C 62% 3.5 mph WSW5.6 kmh WSW 5.8 mph9.3 kmh 30.62 in1036.9 mb - 0.00 in0.0 mm 0.00 in0.0 mm
01:15 PM 41.2°F5.1°C 29.1°F-1.6°C 62% 6.9 mph SW11.1 kmh SW 9.2 mph14.8 kmh 30.62 in1036.9 mb - 0.00 in0.0 mm 0.00 in0.0 mm
01:10 PM 41.2°F5.1°C 29.1°F-1.6°C 62% 5.8 mph W9.3 kmh W 9.2 mph14.8 kmh 30.62 in1036.9 mb - 0.00 in0.0 mm 0.00 in0.0 mm
01:00 PM 41.2°F5.1°C 29.5°F-1.4°C 63% 5.8 mph NE9.3 kmh NE 9.2 mph14.8 kmh 30.62 in1036.9 mb - 0.00 in0.0 mm 0.00 in0.0 mm
12:55 PM 41.2°F5.1°C 29.5°F-1.4°C 63% 8.1 mph SW13.0 kmh SW 10.4 mph16.7 kmh 30.62 in1036.9 mb - 0.00 in0.0 mm 0.00 in0.0 mm
12:50 PM 41.2°F5.1°C 29.9°F-1.2°C 64% 4.6 mph W7.4 kmh W 6.9 mph11.1 kmh 30.62 in1036.9 mb - 0.00 in0.0 mm 0.00 in0.0 mm
12:45 PM 41.2°F5.1°C 29.9°F-1.2°C 64% 5.8 mph W9.3 kmh W 8.1 mph13.0 kmh 30.62 in1036.9 mb - 0.00 in0.0 mm 0.00 in0.0 mm
12:40 PM 41.2°F5.1°C 29.9°F-1.2°C 64% 5.8 mph W9.3 kmh W 11.5 mph18.5 kmh 30.62 in1036.9 mb - 0.00 in0.0 mm 0.00 in0.0 mm
12:35 PM 41.4°F5.2°C 30.1°F-1.1°C 64% 6.9 mph WSW11.1 kmh WSW 9.2 mph14.8 kmh 30.62 in1036.9 mb - 0.00 in0.0 mm 0.00 in0.0 mm
12:30 PM 41.5°F5.3°C 30.3°F-0.9°C 64% 4.6 mph WSW7.4 kmh WSW 4.6 mph7.4 kmh 30.62 in1036.9 mb - 0.00 in0.0 mm 0.00 in0.0 mm
12:25 PM 41.5°F5.3°C 30.3°F-0.9°C 64% 4.6 mph WSW7.4 kmh WSW 5.8 mph9.3 kmh 30.62 in1036.9 mb - 0.00 in0.0 mm 0.00 in0.0 mm
12:20 PM 41.5°F5.3°C 30.3°F-0.9°C 64% 4.6 mph W7.4 kmh W 6.9 mph11.1 kmh 30.62 in1036.9 mb - 0.00 in0.0 mm 0.00 in0.0 mm
12:15 PM 41.5°F5.3°C 30.3°F-0.9°C 64% 4.6 mph W7.4 kmh W 8.1 mph13.0 kmh 30.61 in1036.6 mb - 0.00 in0.0 mm 0.00 in0.0 mm
12:10 PM 41.7°F5.4°C 30.4°F-0.9°C 64% 4.6 mph W7.4 kmh W 6.9 mph11.1 kmh 30.59 in1035.9 mb - 0.00 in0.0 mm 0.00 in0.0 mm
12:00 PM 41.9°F5.5°C 30.6°F-0.8°C 64% 6.9 mph SW11.1 kmh SW 12.7 mph20.4 kmh 30.61 in1036.6 mb - 0.00 in0.0 mm 0.00 in0.0 mm
11:55 AM 42.1°F5.6°C 31.2°F-0.4°C 65% 6.9 mph SW11.1 kmh SW 8.1 mph13.0 kmh 30.62 in1036.9 mb - 0.00 in0.0 mm 0.00 in0.0 mm
11:50 AM 42.3°F5.7°C 31.7°F-0.2°C 66% 5.8 mph WSW9.3 kmh WSW 9.2 mph14.8 kmh 30.62 in1036.9 mb - 0.00 in0.0 mm 0.00 in0.0 mm
11:45 AM 42.1°F5.6°C 31.9°F-0.1°C 67% 6.9 mph W11.1 kmh W 9.2 mph14.8 kmh 30.62 in1036.9 mb - 0.00 in0.0 mm 0.00 in0.0 mm
11:40 AM 41.5°F5.3°C 31.4°F-0.3°C 67% 5.8 mph W9.3 kmh W 6.9 mph11.1 kmh 30.62 in1036.9 mb - 0.00 in0.0 mm 0.00 in0.0 mm
11:35 AM 40.6°F4.8°C 30.5°F-0.8°C 67% 5.8 mph W9.3 kmh W 8.1 mph13.0 kmh 30.62 in1036.9 mb - 0.00 in0.0 mm 0.00 in0.0 mm
11:30 AM 40.3°F4.6°C 29.8°F-1.2°C 66% 6.9 mph WSW11.1 kmh WSW 10.4 mph16.7 kmh 30.62 in1036.9 mb - 0.00 in0.0 mm 0.00 in0.0 mm
11:25 AM 40.3°F4.6°C 30.2°F-1.0°C 67% 6.9 mph NW11.1 kmh NW 9.2 mph14.8 kmh 30.62 in1036.9 mb - 0.00 in0.0 mm 0.00 in0.0 mm
11:20 AM 40.5°F4.7°C 30.4°F-0.9°C 67% 5.8 mph W9.3 kmh W 9.2 mph14.8 kmh 30.62 in1036.9 mb - 0.00 in0.0 mm 0.00 in0.0 mm
11:15 AM 40.3°F4.6°C 30.2°F-1.0°C 67% 8.1 mph W13.0 kmh W 10.4 mph16.7 kmh 30.62 in1036.9 mb - 0.00 in0.0 mm 0.00 in0.0 mm
11:10 AM 39.8°F4.3°C 29.7°F-1.3°C 67% 6.9 mph W11.1 kmh W 9.2 mph14.8 kmh 30.62 in1036.9 mb - 0.00 in0.0 mm 0.00 in0.0 mm
11:00 AM 38.8°F3.8°C 28.4°F-2.0°C 66% 5.8 mph W9.3 kmh W 8.1 mph13.0 kmh 30.62 in1036.9 mb - 0.00 in0.0 mm 0.00 in0.0 mm
10:55 AM 38.8°F3.8°C 28.1°F-2.2°C 65% 4.6 mph W7.4 kmh W 10.4 mph16.7 kmh 30.62 in1036.9 mb - 0.00 in0.0 mm 0.00 in0.0 mm
10:50 AM 38.7°F3.7°C 27.9°F-2.3°C 65% 4.6 mph WSW7.4 kmh WSW 5.8 mph9.3 kmh 30.62 in1036.9 mb - 0.00 in0.0 mm 0.00 in0.0 mm
10:45 AM 38.7°F3.7°C 28.3°F-2.1°C 66% 4.6 mph W7.4 kmh W 4.6 mph7.4 kmh 30.62 in1036.9 mb - 0.00 in0.0 mm 0.00 in0.0 mm
10:40 AM 38.5°F3.6°C 28.1°F-2.2°C 66% 5.8 mph SW9.3 kmh SW 5.8 mph9.3 kmh 30.62 in1036.9 mb - 0.00 in0.0 mm 0.00 in0.0 mm
10:35 AM 38.3°F3.5°C 28.3°F-2.1°C 67% 4.6 mph SW7.4 kmh SW 6.9 mph11.1 kmh 30.62 in1036.9 mb - 0.00 in0.0 mm 0.00 in0.0 mm
10:30 AM 38.1°F3.4°C 28.5°F-1.9°C 68% 4.6 mph W7.4 kmh W 5.8 mph9.3 kmh 30.62 in1036.9 mb - 0.00 in0.0 mm 0.00 in0.0 mm
10:25 AM 37.9°F3.3°C 28.3°F-2.1°C 68% 3.5 mph W5.6 kmh W 4.6 mph7.4 kmh 30.62 in1036.9 mb - 0.00 in0.0 mm 0.00 in0.0 mm
10:10 AM 36.4°F2.4°C 27.2°F-2.7°C 69% 4.6 mph WSW7.4 kmh WSW 5.8 mph9.3 kmh 30.62 in1036.9 mb - 0.00 in0.0 mm 0.00 in0.0 mm
10:00 AM 35.4°F1.9°C 25.9°F-3.4°C 68% 4.6 mph WSW7.4 kmh WSW 8.1 mph13.0 kmh 30.62 in1036.9 mb - 0.00 in0.0 mm 0.00 in0.0 mm
09:55 AM 34.1°F1.2°C 24.3°F-4.3°C 67% 3.5 mph SW5.6 kmh SW 4.6 mph7.4 kmh 30.62 in1036.9 mb - 0.00 in0.0 mm 0.00 in0.0 mm
09:50 AM 33.9°F1.1°C 24.1°F-4.4°C 67% 3.5 mph W5.6 kmh W 3.5 mph5.6 kmh 30.62 in1036.9 mb - 0.00 in0.0 mm 0.00 in0.0 mm
09:45 AM 33.2°F0.7°C 23.1°F-4.9°C 66% 3.5 mph WSW5.6 kmh WSW 3.5 mph5.6 kmh 30.62 in1036.9 mb - 0.00 in0.0 mm 0.00 in0.0 mm
09:40 AM 32.6°F0.3°C 22.1°F-5.5°C 65% 3.5 mph W5.6 kmh W 4.6 mph7.4 kmh 30.62 in1036.9 mb - 0.00 in0.0 mm 0.00 in0.0 mm
09:35 AM 32.7°F0.4°C 22.2°F-5.4°C 65% 1.2 mph WSW1.9 kmh WSW 3.5 mph5.6 kmh 30.62 in1036.9 mb - 0.00 in0.0 mm 0.00 in0.0 mm
09:30 AM 33.1°F0.6°C 22.6°F-5.2°C 65% 2.3 mph WNW3.7 kmh WNW 2.3 mph3.7 kmh 30.62 in1036.9 mb - 0.00 in0.0 mm 0.00 in0.0 mm
09:25 AM 33.1°F0.6°C 22.6°F-5.2°C 65% 2.3 mph W3.7 kmh W 3.5 mph5.6 kmh 30.62 in1036.9 mb - 0.00 in0.0 mm 0.00 in0.0 mm
09:20 AM 32.9°F0.5°C 22.0°F-5.6°C 64% 2.3 mph W3.7 kmh W 3.5 mph5.6 kmh 30.62 in1036.9 mb - 0.00 in0.0 mm 0.00 in0.0 mm
09:15 AM 32.6°F0.3°C 21.7°F-5.7°C 64% 2.3 mph WSW3.7 kmh WSW 3.5 mph5.6 kmh 30.61 in1036.6 mb - 0.00 in0.0 mm 0.00 in0.0 mm
09:10 AM 32.6°F0.3°C 21.4°F-5.9°C 63% Calm Calm -- 30.59 in1035.9 mb - 0.00 in0.0 mm 0.00 in0.0 mm
09:00 AM 33.1°F0.6°C 22.2°F-5.4°C 64% Calm Calm 1.2 mph1.9 kmh 30.61 in1036.6 mb - 0.00 in0.0 mm 0.00 in0.0 mm
08:55 AM 33.4°F0.8°C 22.6°F-5.2°C 64% 1.2 mph W1.9 kmh W 2.3 mph3.7 kmh 30.62 in1036.9 mb - 0.00 in0.0 mm 0.00 in0.0 mm
08:50 AM 33.6°F0.9°C 22.7°F-5.2°C 64% Calm Calm 1.2 mph1.9 kmh 30.62 in1036.9 mb - 0.00 in0.0 mm 0.00 in0.0 mm
08:45 AM 33.6°F0.9°C 22.7°F-5.2°C 64% Calm Calm 1.2 mph1.9 kmh 30.62 in1036.9 mb - 0.00 in0.0 mm 0.00 in0.0 mm
08:40 AM 33.6°F0.9°C 22.4°F-5.3°C 63% 1.2 mph W1.9 kmh W 2.3 mph3.7 kmh 30.62 in1036.9 mb - 0.00 in0.0 mm 0.00 in0.0 mm
08:35 AM 33.6°F0.9°C 22.4°F-5.3°C 63% 1.2 mph WSW1.9 kmh WSW 4.6 mph7.4 kmh 30.62 in1036.9 mb - 0.00 in0.0 mm 0.00 in0.0 mm
08:30 AM 33.6°F0.9°C 22.4°F-5.3°C 63% 1.2 mph SW1.9 kmh SW 2.3 mph3.7 kmh 30.62 in1036.9 mb - 0.00 in0.0 mm 0.00 in0.0 mm
08:25 AM 33.8°F1.0°C 22.5°F-5.3°C 63% Calm Calm 1.2 mph1.9 kmh 30.62 in1036.9 mb - 0.00 in0.0 mm 0.00 in0.0 mm
08:20 AM 33.8°F1.0°C 22.5°F-5.3°C 63% 1.2 mph WSW1.9 kmh WSW 3.5 mph5.6 kmh 30.62 in1036.9 mb - 0.00 in0.0 mm 0.00 in0.0 mm
08:15 AM 33.8°F1.0°C 22.5°F-5.3°C 63% 1.2 mph SW1.9 kmh SW 2.3 mph3.7 kmh 30.62 in1036.9 mb - 0.00 in0.0 mm 0.00 in0.0 mm
08:10 AM 33.6°F0.9°C 22.4°F-5.3°C 63% Calm Calm 3.5 mph5.6 kmh 30.62 in1036.9 mb - 0.00 in0.0 mm 0.00 in0.0 mm
08:00 AM 33.1°F0.6°C 21.5°F-5.8°C 62% 2.3 mph W3.7 kmh W 3.5 mph5.6 kmh 30.62 in1036.9 mb - 0.00 in0.0 mm 0.00 in0.0 mm
07:55 AM 32.7°F0.4°C 21.1°F-6.1°C 62% 1.2 mph WSW1.9 kmh WSW 3.5 mph5.6 kmh 30.62 in1036.9 mb - 0.00 in0.0 mm 0.00 in0.0 mm
07:50 AM 32.4°F0.2°C 20.8°F-6.2°C 62% 1.2 mph WSW1.9 kmh WSW 2.3 mph3.7 kmh 30.62 in1036.9 mb - 0.00 in0.0 mm 0.00 in0.0 mm
07:45 AM 31.8°F-0.1°C 19.9°F-6.7°C 61% Calm Calm -- 30.62 in1036.9 mb - 0.00 in0.0 mm 0.00 in0.0 mm
07:40 AM 31.6°F-0.2°C 19.7°F-6.8°C 61% Calm Calm -- 30.62 in1036.9 mb - 0.00 in0.0 mm 0.00 in0.0 mm
07:35 AM 31.6°F-0.2°C 19.7°F-6.8°C 61% Calm Calm -- 30.62 in1036.9 mb - 0.00 in0.0 mm 0.00 in0.0 mm
07:30 AM 31.8°F-0.1°C 19.9°F-6.7°C 61% Calm Calm -- 30.61 in1036.6 mb - 0.00 in0.0 mm 0.00 in0.0 mm
07:25 AM 31.8°F-0.1°C 19.9°F-6.7°C 61% Calm Calm -- 30.59 in1035.9 mb - 0.00 in0.0 mm 0.00 in0.0 mm
07:20 AM 31.6°F-0.2°C 19.3°F-7.1°C 60% Calm Calm -- 30.59 in1035.9 mb - 0.00 in0.0 mm 0.00 in0.0 mm
07:15 AM 31.6°F-0.2°C 19.3°F-7.1°C 60% Calm Calm -- 30.59 in1035.9 mb - 0.00 in0.0 mm 0.00 in0.0 mm
07:10 AM 31.9°F-0.1°C 19.6°F-6.9°C 60% Calm Calm -- 30.59 in1035.9 mb - 0.00 in0.0 mm 0.00 in0.0 mm
07:00 AM 32.2°F0.1°C 20.2°F-6.6°C 61% Calm Calm 1.2 mph1.9 kmh 30.59 in1035.9 mb - 0.00 in0.0 mm 0.00 in0.0 mm
06:55 AM 32.0°F0.0°C 19.7°F-6.8°C 60% 1.2 mph W1.9 kmh W 2.3 mph3.7 kmh 30.59 in1035.9 mb - 0.00 in0.0 mm 0.00 in0.0 mm
06:50 AM 31.8°F-0.1°C 19.5°F-6.9°C 60% Calm Calm -- 30.59 in1035.9 mb - 0.00 in0.0 mm 0.00 in0.0 mm
06:45 AM 31.4°F-0.3°C 19.1°F-7.2°C 60% Calm Calm 1.2 mph1.9 kmh 30.59 in1035.9 mb - 0.00 in0.0 mm 0.00 in0.0 mm
06:40 AM 31.1°F-0.5°C 18.4°F-7.6°C 59% Calm Calm -- 30.59 in1035.9 mb - 0.00 in0.0 mm 0.00 in0.0 mm
06:35 AM 31.3°F-0.4°C 18.6°F-7.4°C 59% Calm Calm -- 30.59 in1035.9 mb - 0.00 in0.0 mm 0.00 in0.0 mm
06:30 AM 31.5°F-0.3°C 18.8°F-7.3°C 59% Calm Calm 1.2 mph1.9 kmh 30.58 in1035.6 mb - 0.00 in0.0 mm 0.00 in0.0 mm
06:25 AM 31.8°F-0.1°C 19.1°F-7.2°C 59% Calm Calm -- 30.56 in1034.9 mb - 0.00 in0.0 mm 0.00 in0.0 mm
06:20 AM 32.0°F0.0°C 19.3°F-7.1°C 59% Calm Calm 1.2 mph1.9 kmh 30.56 in1034.9 mb - 0.00 in0.0 mm 0.00 in0.0 mm
06:15 AM 32.0°F0.0°C 19.3°F-7.1°C 59% 1.2 mph S1.9 kmh S 2.3 mph3.7 kmh 30.56 in1034.9 mb - 0.00 in0.0 mm 0.00 in0.0 mm
06:10 AM 32.2°F0.1°C 19.4°F-7.0°C 59% Calm Calm 2.3 mph3.7 kmh 30.56 in1034.9 mb - 0.00 in0.0 mm 0.00 in0.0 mm
06:00 AM 33.5°F0.8°C 21.1°F-6.1°C 60% 2.3 mph E3.7 kmh E 3.5 mph5.6 kmh 30.58 in1035.6 mb - 0.00 in0.0 mm 0.00 in0.0 mm
05:55 AM 33.8°F1.0°C 21.4°F-5.9°C 60% 1.2 mph W1.9 kmh W 2.3 mph3.7 kmh 30.59 in1035.9 mb - 0.00 in0.0 mm 0.00 in0.0 mm
05:50 AM 33.8°F1.0°C 21.4°F-5.9°C 60% 1.2 mph WSW1.9 kmh WSW 3.5 mph5.6 kmh 30.59 in1035.9 mb - 0.00 in0.0 mm 0.00 in0.0 mm
05:45 AM 33.7°F0.9°C 21.7°F-5.7°C 61% 3.5 mph WSW5.6 kmh WSW 5.8 mph9.3 kmh 30.58 in1035.6 mb - 0.00 in0.0 mm 0.00 in0.0 mm
05:40 AM 33.4°F0.8°C 21.0°F-6.1°C 60% 3.5 mph W5.6 kmh W 5.8 mph9.3 kmh 30.56 in1034.9 mb - 0.00 in0.0 mm 0.00 in0.0 mm
05:35 AM 33.3°F0.7°C 20.9°F-6.2°C 60% 3.5 mph W5.6 kmh W 4.6 mph7.4 kmh 30.56 in1034.9 mb - 0.00 in0.0 mm 0.00 in0.0 mm
05:30 AM 33.2°F0.7°C 20.8°F-6.2°C 60% 2.3 mph WSW3.7 kmh WSW 3.5 mph5.6 kmh 30.55 in1034.5 mb - 0.00 in0.0 mm 0.00 in0.0 mm
05:25 AM 33.3°F0.7°C 20.9°F-6.2°C 60% 2.3 mph WSW3.7 kmh WSW 3.5 mph5.6 kmh 30.53 in1033.9 mb - 0.00 in0.0 mm 0.00 in0.0 mm
05:20 AM 33.3°F0.7°C 20.9°F-6.2°C 60% 3.5 mph WSW5.6 kmh WSW 5.8 mph9.3 kmh 30.53 in1033.9 mb - 0.00 in0.0 mm 0.00 in0.0 mm
05:15 AM 33.1°F0.6°C 20.7°F-6.3°C 60% 3.5 mph WSW5.6 kmh WSW 4.6 mph7.4 kmh 30.53 in1033.9 mb - 0.00 in0.0 mm 0.00 in0.0 mm
05:10 AM 33.3°F0.7°C 20.9°F-6.2°C 60% 5.8 mph WSW9.3 kmh WSW 6.9 mph11.1 kmh 30.53 in1033.9 mb - 0.00 in0.0 mm 0.00 in0.0 mm
05:00 AM 33.6°F0.9°C 21.2°F-6.0°C 60% 4.6 mph W7.4 kmh W 5.8 mph9.3 kmh 30.53 in1033.9 mb - 0.00 in0.0 mm 0.00 in0.0 mm
04:55 AM 33.6°F0.9°C 21.2°F-6.0°C 60% 3.5 mph W5.6 kmh W 4.6 mph7.4 kmh 30.53 in1033.9 mb - 0.00 in0.0 mm 0.00 in0.0 mm
04:50 AM 33.8°F1.0°C 21.3°F-5.9°C 60% 3.5 mph WSW5.6 kmh WSW 4.6 mph7.4 kmh 30.53 in1033.9 mb - 0.00 in0.0 mm 0.00 in0.0 mm
04:45 AM 33.6°F0.9°C 21.6°F-5.8°C 61% 3.5 mph W5.6 kmh W 4.6 mph7.4 kmh 30.53 in1033.9 mb - 0.00 in0.0 mm 0.00 in0.0 mm
04:40 AM 33.4°F0.8°C 21.0°F-6.1°C 60% 4.6 mph W7.4 kmh W 6.9 mph11.1 kmh 30.53 in1033.9 mb - 0.00 in0.0 mm 0.00 in0.0 mm
04:35 AM 33.3°F0.7°C 20.9°F-6.2°C 60% 3.5 mph WSW5.6 kmh WSW 4.6 mph7.4 kmh 30.53 in1033.9 mb - 0.00 in0.0 mm 0.00 in0.0 mm
04:30 AM 33.3°F0.7°C 20.9°F-6.2°C 60% 2.3 mph W3.7 kmh W 3.5 mph5.6 kmh 30.53 in1033.9 mb - 0.00 in0.0 mm 0.00 in0.0 mm
04:25 AM 33.3°F0.7°C 21.3°F-5.9°C 61% 3.5 mph W5.6 kmh W 4.6 mph7.4 kmh 30.53 in1033.9 mb - 0.00 in0.0 mm 0.00 in0.0 mm
04:20 AM 33.6°F0.9°C 21.5°F-5.8°C 61% 3.5 mph W5.6 kmh W 4.6 mph7.4 kmh 30.53 in1033.9 mb - 0.00 in0.0 mm 0.00 in0.0 mm
04:15 AM 33.6°F0.9°C 21.6°F-5.8°C 61% 3.5 mph WSW5.6 kmh WSW 4.6 mph7.4 kmh 30.53 in1033.9 mb - 0.00 in0.0 mm 0.00 in0.0 mm
04:10 AM 33.6°F0.9°C 21.6°F-5.8°C 61% 4.6 mph WSW7.4 kmh WSW 5.8 mph9.3 kmh 30.53 in1033.9 mb - 0.00 in0.0 mm 0.00 in0.0 mm
04:00 AM 32.7°F0.4°C 20.0°F-6.7°C 59% 3.5 mph SW5.6 kmh SW 5.8 mph9.3 kmh 30.53 in1033.9 mb - 0.00 in0.0 mm 0.00 in0.0 mm
03:55 AM 32.5°F0.3°C 19.8°F-6.8°C 59% 3.5 mph WSW5.6 kmh WSW 3.5 mph5.6 kmh 30.53 in1033.9 mb - 0.00 in0.0 mm 0.00 in0.0 mm
03:50 AM 32.2°F0.1°C 19.0°F-7.2°C 58% 2.3 mph WNW3.7 kmh WNW 4.6 mph7.4 kmh 30.53 in1033.9 mb - 0.00 in0.0 mm 0.00 in0.0 mm
03:45 AM 32.0°F0.0°C 18.9°F-7.3°C 58% 3.5 mph W5.6 kmh W 4.6 mph7.4 kmh 30.52 in1033.5 mb - 0.00 in0.0 mm 0.00 in0.0 mm
03:40 AM 31.8°F-0.1°C 18.3°F-7.6°C 57% Calm Calm 2.3 mph3.7 kmh 30.50 in1032.8 mb - 0.00 in0.0 mm 0.00 in0.0 mm
03:35 AM 32.0°F0.0°C 18.5°F-7.5°C 57% Calm Calm -- 30.50 in1032.8 mb - 0.00 in0.0 mm 0.00 in0.0 mm
03:30 AM 32.2°F0.1°C 18.6°F-7.4°C 57% Calm Calm -- 30.50 in1032.8 mb - 0.00 in0.0 mm 0.00 in0.0 mm
03:25 AM 32.2°F0.1°C 18.6°F-7.4°C 57% 1.2 mph WSW1.9 kmh WSW 2.3 mph3.7 kmh 30.50 in1032.8 mb - 0.00 in0.0 mm 0.00 in0.0 mm
03:20 AM 32.5°F0.3°C 19.0°F-7.2°C 57% Calm Calm 1.2 mph1.9 kmh 30.50 in1032.8 mb - 0.00 in0.0 mm 0.00 in0.0 mm
03:15 AM 32.9°F0.5°C 19.3°F-7.1°C 57% Calm Calm -- 30.50 in1032.8 mb - 0.00 in0.0 mm 0.00 in0.0 mm
03:10 AM 33.3°F0.7°C 19.7°F-6.8°C 57% Calm Calm -- 30.50 in1032.8 mb - 0.00 in0.0 mm 0.00 in0.0 mm
03:00 AM 33.8°F1.0°C 20.2°F-6.6°C 57% 3.5 mph SW5.6 kmh SW 4.6 mph7.4 kmh 30.50 in1032.8 mb - 0.00 in0.0 mm 0.00 in0.0 mm
02:55 AM 33.8°F1.0°C 20.2°F-6.6°C 57% 2.3 mph WNW3.7 kmh WNW 4.6 mph7.4 kmh 30.50 in1032.8 mb - 0.00 in0.0 mm 0.00 in0.0 mm
02:50 AM 34.3°F1.3°C 20.7°F-6.3°C 57% 4.6 mph WNW7.4 kmh WNW 4.6 mph7.4 kmh 30.50 in1032.8 mb - 0.00 in0.0 mm 0.00 in0.0 mm
02:45 AM 34.5°F1.4°C 20.8°F-6.2°C 57% 4.6 mph W7.4 kmh W 5.8 mph9.3 kmh 30.50 in1032.8 mb - 0.00 in0.0 mm 0.00 in0.0 mm
02:40 AM 34.9°F1.6°C 21.2°F-6.0°C 57% 5.8 mph W9.3 kmh W 8.1 mph13.0 kmh 30.50 in1032.8 mb - 0.00 in0.0 mm 0.00 in0.0 mm
02:35 AM 34.9°F1.6°C 21.6°F-5.8°C 58% 4.6 mph W7.4 kmh W 6.9 mph11.1 kmh 30.50 in1032.8 mb - 0.00 in0.0 mm 0.00 in0.0 mm
02:30 AM 34.8°F1.6°C 21.1°F-6.1°C 57% 4.6 mph W7.4 kmh W 6.9 mph11.1 kmh 30.50 in1032.8 mb - 0.00 in0.0 mm 0.00 in0.0 mm
02:25 AM 34.5°F1.4°C 20.8°F-6.2°C 57% 4.6 mph W7.4 kmh W 6.9 mph11.1 kmh 30.50 in1032.8 mb - 0.00 in0.0 mm 0.00 in0.0 mm
02:20 AM 34.3°F1.3°C 20.7°F-6.3°C 57% 4.6 mph W7.4 kmh W 6.9 mph11.1 kmh 30.50 in1032.8 mb - 0.00 in0.0 mm 0.00 in0.0 mm
02:15 AM 34.3°F1.3°C 20.7°F-6.3°C 57% 3.5 mph SW5.6 kmh SW 8.1 mph13.0 kmh 30.50 in1032.8 mb - 0.00 in0.0 mm 0.00 in0.0 mm
02:10 AM 34.5°F1.4°C 20.8°F-6.2°C 57% 3.5 mph W5.6 kmh W 5.8 mph9.3 kmh 30.50 in1032.8 mb - 0.00 in0.0 mm 0.00 in0.0 mm
02:00 AM 34.9°F1.6°C 21.2°F-6.0°C 57% 4.6 mph W7.4 kmh W 5.8 mph9.3 kmh 30.50 in1032.8 mb - 0.00 in0.0 mm 0.00 in0.0 mm
01:55 AM 34.9°F1.6°C 21.2°F-6.0°C 57% 4.6 mph W7.4 kmh W 5.8 mph9.3 kmh 30.50 in1032.8 mb - 0.00 in0.0 mm 0.00 in0.0 mm
01:50 AM 34.7°F1.5°C 20.6°F-6.3°C 56% 3.5 mph W5.6 kmh W 5.8 mph9.3 kmh 30.50 in1032.8 mb - 0.00 in0.0 mm 0.00 in0.0 mm
01:45 AM 34.5°F1.4°C 20.4°F-6.4°C 56% 4.6 mph WSW7.4 kmh WSW 5.8 mph9.3 kmh 30.50 in1032.8 mb - 0.00 in0.0 mm 0.00 in0.0 mm
01:40 AM 34.3°F1.3°C 20.3°F-6.5°C 56% 2.3 mph W3.7 kmh W 5.8 mph9.3 kmh 30.50 in1032.8 mb - 0.00 in0.0 mm 0.00 in0.0 mm
01:35 AM 34.3°F1.3°C 19.8°F-6.8°C 55% 3.5 mph WSW5.6 kmh WSW 4.6 mph7.4 kmh 30.50 in1032.8 mb - 0.00 in0.0 mm 0.00 in0.0 mm
01:30 AM 34.3°F1.3°C 19.8°F-6.8°C 55% 2.3 mph WSW3.7 kmh WSW 3.5 mph5.6 kmh 30.50 in1032.8 mb - 0.00 in0.0 mm 0.00 in0.0 mm
01:25 AM 34.5°F1.4°C 20.0°F-6.7°C 55% 2.3 mph WNW3.7 kmh WNW 2.3 mph3.7 kmh 30.50 in1032.8 mb - 0.00 in0.0 mm 0.00 in0.0 mm
01:20 AM 34.9°F1.6°C 20.3°F-6.5°C 55% 2.3 mph WSW3.7 kmh WSW 2.3 mph3.7 kmh 30.50 in1032.8 mb - 0.00 in0.0 mm 0.00 in0.0 mm
01:15 AM 35.1°F1.7°C 20.5°F-6.4°C 55% 2.3 mph WNW3.7 kmh WNW 3.5 mph5.6 kmh 30.50 in1032.8 mb - 0.00 in0.0 mm 0.00 in0.0 mm
01:10 AM 35.4°F1.9°C 20.8°F-6.2°C 55% 1.2 mph W1.9 kmh W 2.3 mph3.7 kmh 30.50 in1032.8 mb - 0.00 in0.0 mm 0.00 in0.0 mm
01:00 AM 35.6°F2.0°C 21.0°F-6.1°C 55% 3.5 mph WSW5.6 kmh WSW 4.6 mph7.4 kmh 30.50 in1032.8 mb - 0.00 in0.0 mm 0.00 in0.0 mm
12:55 AM 35.4°F1.9°C 20.8°F-6.2°C 55% 3.5 mph WSW5.6 kmh WSW 4.6 mph7.4 kmh 30.50 in1032.8 mb - 0.00 in0.0 mm 0.00 in0.0 mm
12:50 AM 35.2°F1.8°C 20.2°F-6.6°C 54% 3.5 mph WSW5.6 kmh WSW 3.5 mph5.6 kmh 30.50 in1032.8 mb - 0.00 in0.0 mm 0.00 in0.0 mm
12:45 AM 35.4°F1.9°C 20.4°F-6.4°C 54% 2.3 mph S3.7 kmh S 2.3 mph3.7 kmh 30.49 in1032.5 mb - 0.00 in0.0 mm 0.00 in0.0 mm
12:40 AM 35.8°F2.1°C 20.7°F-6.3°C 54% 1.2 mph SW1.9 kmh SW 2.3 mph3.7 kmh 30.48 in1032.2 mb - 0.00 in0.0 mm 0.00 in0.0 mm
12:35 AM 36.1°F2.3°C 21.1°F-6.1°C 54% 3.5 mph WSW5.6 kmh WSW 4.6 mph7.4 kmh 30.48 in1032.2 mb - 0.00 in0.0 mm 0.00 in0.0 mm
12:30 AM 36.1°F2.3°C 21.1°F-6.1°C 54% 3.5 mph WSW5.6 kmh WSW 4.6 mph7.4 kmh 30.46 in1031.5 mb - 0.00 in0.0 mm 0.00 in0.0 mm
12:25 AM 36.3°F2.4°C 21.2°F-6.0°C 54% 3.5 mph NW5.6 kmh NW 3.5 mph5.6 kmh 30.45 in1031.2 mb - 0.00 in0.0 mm 0.00 in0.0 mm
12:20 AM 36.6°F2.6°C 21.0°F-6.1°C 53% 4.6 mph WSW7.4 kmh WSW 6.9 mph11.1 kmh 30.45 in1031.2 mb - 0.00 in0.0 mm 0.00 in0.0 mm
12:15 AM 36.7°F2.6°C 21.2°F-6.0°C 53% 4.6 mph WNW7.4 kmh WNW 5.8 mph9.3 kmh 30.45 in1031.2 mb - 0.00 in0.0 mm 0.00 in0.0 mm
12:10 AM 37.0°F2.8°C 21.5°F-5.8°C 53% 4.6 mph WSW7.4 kmh WSW 5.8 mph9.3 kmh 30.45 in1031.2 mb - 0.00 in0.0 mm 0.00 in0.0 mm
12:00 AM 37.6°F3.1°C 21.5°F-5.8°C 52% 3.5 mph WSW5.6 kmh WSW 4.6 mph7.4 kmh 30.45 in1031.2 mb - 0.00 in0.0 mm 0.00 in0.0 mm